sensor_id;sensor_type;location;lat;lon;timestamp;P1;durP1;ratioP1;P2;durP2;ratioP2
44139;SDS011;29803;51.048;4.686;2023-02-01T00:00:33;34.35;;;9.40;;
44139;SDS011;29803;51.048;4.686;2023-02-01T00:03:04;35.17;;;8.85;;
44139;SDS011;29803;51.048;4.686;2023-02-01T00:05:35;32.75;;;8.55;;
44139;SDS011;29803;51.048;4.686;2023-02-01T00:08:06;29.85;;;8.35;;
44139;SDS011;29803;51.048;4.686;2023-02-01T00:10:36;34.28;;;8.52;;
44139;SDS011;29803;51.048;4.686;2023-02-01T00:13:06;36.15;;;8.82;;
44139;SDS011;29803;51.048;4.686;2023-02-01T00:15:37;35.80;;;9.93;;
44139;SDS011;29803;51.048;4.686;2023-02-01T00:18:07;36.25;;;8.52;;
44139;SDS011;29803;51.048;4.686;2023-02-01T00:20:38;34.03;;;8.02;;
44139;SDS011;29803;51.048;4.686;2023-02-01T00:23:08;27.15;;;7.47;;
44139;SDS011;29803;51.048;4.686;2023-02-01T00:25:39;44.35;;;8.10;;
44139;SDS011;29803;51.048;4.686;2023-02-01T00:28:10;31.02;;;8.50;;
44139;SDS011;29803;51.048;4.686;2023-02-01T00:30:42;30.90;;;7.70;;
44139;SDS011;29803;51.048;4.686;2023-02-01T00:33:14;32.20;;;8.20;;
44139;SDS011;29803;51.048;4.686;2023-02-01T00:35:44;31.17;;;9.27;;
44139;SDS011;29803;51.048;4.686;2023-02-01T00:38:15;38.53;;;9.27;;
44139;SDS011;29803;51.048;4.686;2023-02-01T00:40:45;31.52;;;7.47;;
44139;SDS011;29803;51.048;4.686;2023-02-01T00:43:16;31.00;;;8.10;;
44139;SDS011;29803;51.048;4.686;2023-02-01T00:45:46;29.35;;;7.15;;
44139;SDS011;29803;51.048;4.686;2023-02-01T00:48:17;30.42;;;8.23;;
44139;SDS011;29803;51.048;4.686;2023-02-01T00:50:47;32.17;;;7.85;;
44139;SDS011;29803;51.048;4.686;2023-02-01T00:53:18;25.02;;;7.18;;
44139;SDS011;29803;51.048;4.686;2023-02-01T00:55:48;31.10;;;7.03;;
44139;SDS011;29803;51.048;4.686;2023-02-01T00:58:19;35.13;;;6.82;;
44139;SDS011;29803;51.048;4.686;2023-02-01T01:00:49;23.80;;;6.05;;
44139;SDS011;29803;51.048;4.686;2023-02-01T01:03:20;29.70;;;6.88;;
44139;SDS011;29803;51.048;4.686;2023-02-01T01:05:50;28.48;;;6.10;;
44139;SDS011;29803;51.048;4.686;2023-02-01T01:08:21;31.20;;;7.43;;
44139;SDS011;29803;51.048;4.686;2023-02-01T01:10:51;28.25;;;6.22;;
44139;SDS011;29803;51.048;4.686;2023-02-01T01:13:22;33.92;;;7.13;;
44139;SDS011;29803;51.048;4.686;2023-02-01T01:15:53;29.60;;;5.93;;
44139;SDS011;29803;51.048;4.686;2023-02-01T01:18:24;25.05;;;6.03;;
44139;SDS011;29803;51.048;4.686;2023-02-01T01:20:54;33.38;;;6.30;;
44139;SDS011;29803;51.048;4.686;2023-02-01T01:23:25;22.42;;;5.80;;
44139;SDS011;29803;51.048;4.686;2023-02-01T01:25:55;27.65;;;6.80;;
44139;SDS011;29803;51.048;4.686;2023-02-01T01:28:26;27.60;;;6.72;;
44139;SDS011;29803;51.048;4.686;2023-02-01T01:30:57;30.50;;;5.53;;
44139;SDS011;29803;51.048;4.686;2023-02-01T01:33:28;31.10;;;5.53;;
44139;SDS011;29803;51.048;4.686;2023-02-01T01:35:58;41.58;;;6.30;;
44139;SDS011;29803;51.048;4.686;2023-02-01T01:38:29;28.42;;;6.45;;
44139;SDS011;29803;51.048;4.686;2023-02-01T01:41:00;31.77;;;5.57;;
44139;SDS011;29803;51.048;4.686;2023-02-01T01:46:24;23.52;;;5.13;;
44139;SDS011;29803;51.048;4.686;2023-02-01T01:51:48;30.63;;;5.40;;
44139;SDS011;29803;51.048;4.686;2023-02-01T01:54:24;21.08;;;5.13;;
44139;SDS011;29803;51.048;4.686;2023-02-01T01:57:14;24.55;;;4.90;;
44139;SDS011;29803;51.048;4.686;2023-02-01T01:59:53;30.58;;;5.00;;
44139;SDS011;29803;51.048;4.686;2023-02-01T02:02:29;23.25;;;4.93;;
44139;SDS011;29803;51.048;4.686;2023-02-01T02:05:00;23.60;;;4.95;;
44139;SDS011;29803;51.048;4.686;2023-02-01T02:07:33;21.92;;;5.13;;
44139;SDS011;29803;51.048;4.686;2023-02-01T02:10:08;23.00;;;4.53;;
44139;SDS011;29803;51.048;4.686;2023-02-01T02:12:41;36.03;;;6.32;;
44139;SDS011;29803;51.048;4.686;2023-02-01T02:15:14;27.80;;;5.25;;
44139;SDS011;29803;51.048;4.686;2023-02-01T02:17:59;26.60;;;5.13;;
44139;SDS011;29803;51.048;4.686;2023-02-01T02:20:39;28.95;;;5.93;;
44139;SDS011;29803;51.048;4.686;2023-02-01T02:26:39;28.00;;;4.50;;
44139;SDS011;29803;51.048;4.686;2023-02-01T02:29:35;29.98;;;5.50;;
44139;SDS011;29803;51.048;4.686;2023-02-01T02:44:09;24.75;;;3.97;;
44139;SDS011;29803;51.048;4.686;2023-02-01T02:53:48;20.55;;;3.80;;
44139;SDS011;29803;51.048;4.686;2023-02-01T02:56:46;22.65;;;4.43;;
44139;SDS011;29803;51.048;4.686;2023-02-01T02:59:39;24.30;;;4.35;;
44139;SDS011;29803;51.048;4.686;2023-02-01T03:02:30;24.10;;;3.70;;
44139;SDS011;29803;51.048;4.686;2023-02-01T03:05:21;24.13;;;4.32;;
44139;SDS011;29803;51.048;4.686;2023-02-01T03:10:26;43.70;;;4.88;;
44139;SDS011;29803;51.048;4.686;2023-02-01T03:13:05;29.27;;;4.65;;
44139;SDS011;29803;51.048;4.686;2023-02-01T03:15:51;23.10;;;4.45;;
44139;SDS011;29803;51.048;4.686;2023-02-01T03:21:24;25.33;;;3.97;;
44139;SDS011;29803;51.048;4.686;2023-02-01T03:24:04;20.55;;;4.18;;
44139;SDS011;29803;51.048;4.686;2023-02-01T03:26:42;28.48;;;4.07;;
44139;SDS011;29803;51.048;4.686;2023-02-01T03:29:22;21.75;;;3.92;;
44139;SDS011;29803;51.048;4.686;2023-02-01T03:31:57;33.45;;;4.38;;
44139;SDS011;29803;51.048;4.686;2023-02-01T03:34:28;21.67;;;4.03;;
44139;SDS011;29803;51.048;4.686;2023-02-01T03:37:00;35.67;;;5.00;;
44139;SDS011;29803;51.048;4.686;2023-02-01T03:39:49;26.38;;;5.53;;
44139;SDS011;29803;51.048;4.686;2023-02-01T03:42:30;25.73;;;4.43;;
44139;SDS011;29803;51.048;4.686;2023-02-01T03:48:05;29.42;;;4.22;;
44139;SDS011;29803;51.048;4.686;2023-02-01T03:50:37;18.27;;;3.72;;
44139;SDS011;29803;51.048;4.686;2023-02-01T03:53:11;28.13;;;5.03;;
44139;SDS011;29803;51.048;4.686;2023-02-01T03:55:46;28.50;;;5.00;;
44139;SDS011;29803;51.048;4.686;2023-02-01T03:58:19;23.83;;;4.15;;
44139;SDS011;29803;51.048;4.686;2023-02-01T04:00:52;22.27;;;4.65;;
44139;SDS011;29803;51.048;4.686;2023-02-01T04:03:24;26.00;;;4.10;;
44139;SDS011;29803;51.048;4.686;2023-02-01T04:05:56;28.55;;;4.93;;
44139;SDS011;29803;51.048;4.686;2023-02-01T04:08:26;20.27;;;5.38;;
44139;SDS011;29803;51.048;4.686;2023-02-01T04:10:57;16.77;;;4.13;;
44139;SDS011;29803;51.048;4.686;2023-02-01T04:13:27;40.97;;;5.78;;
44139;SDS011;29803;51.048;4.686;2023-02-01T04:15:58;36.17;;;5.10;;
44139;SDS011;29803;51.048;4.686;2023-02-01T04:18:28;31.42;;;4.68;;
44139;SDS011;29803;51.048;4.686;2023-02-01T04:20:59;31.52;;;5.00;;
44139;SDS011;29803;51.048;4.686;2023-02-01T04:23:29;23.45;;;4.50;;
44139;SDS011;29803;51.048;4.686;2023-02-01T04:26:02;26.52;;;4.22;;
44139;SDS011;29803;51.048;4.686;2023-02-01T04:28:34;26.65;;;4.38;;
44139;SDS011;29803;51.048;4.686;2023-02-01T04:31:04;36.03;;;5.78;;
44139;SDS011;29803;51.048;4.686;2023-02-01T04:33:35;34.30;;;5.35;;
44139;SDS011;29803;51.048;4.686;2023-02-01T04:36:05;40.47;;;6.25;;
44139;SDS011;29803;51.048;4.686;2023-02-01T04:38:36;31.65;;;4.82;;
44139;SDS011;29803;51.048;4.686;2023-02-01T04:41:06;38.47;;;5.15;;
44139;SDS011;29803;51.048;4.686;2023-02-01T04:43:37;27.20;;;3.72;;
44139;SDS011;29803;51.048;4.686;2023-02-01T04:46:07;30.05;;;4.47;;
44139;SDS011;29803;51.048;4.686;2023-02-01T04:48:38;42.72;;;7.70;;
44139;SDS011;29803;51.048;4.686;2023-02-01T04:51:09;32.60;;;11.30;;
44139;SDS011;29803;51.048;4.686;2023-02-01T04:53:40;59.22;;;15.95;;
44139;SDS011;29803;51.048;4.686;2023-02-01T04:56:11;40.97;;;14.52;;
44139;SDS011;29803;51.048;4.686;2023-02-01T04:58:41;38.78;;;13.32;;
44139;SDS011;29803;51.048;4.686;2023-02-01T05:01:11;47.67;;;11.88;;
44139;SDS011;29803;51.048;4.686;2023-02-01T05:03:42;44.83;;;15.65;;
44139;SDS011;29803;51.048;4.686;2023-02-01T05:06:13;30.80;;;8.45;;
44139;SDS011;29803;51.048;4.686;2023-02-01T05:08:44;32.03;;;5.22;;
44139;SDS011;29803;51.048;4.686;2023-02-01T05:11:14;32.67;;;5.32;;
44139;SDS011;29803;51.048;4.686;2023-02-01T05:14:03;31.17;;;7.25;;
44139;SDS011;29803;51.048;4.686;2023-02-01T05:16:34;28.63;;;5.60;;
44139;SDS011;29803;51.048;4.686;2023-02-01T05:19:05;31.63;;;4.53;;
44139;SDS011;29803;51.048;4.686;2023-02-01T05:21:35;26.33;;;4.72;;
44139;SDS011;29803;51.048;4.686;2023-02-01T05:24:07;28.48;;;4.85;;
44139;SDS011;29803;51.048;4.686;2023-02-01T05:26:39;30.50;;;5.22;;
44139;SDS011;29803;51.048;4.686;2023-02-01T05:29:10;28.17;;;5.47;;
44139;SDS011;29803;51.048;4.686;2023-02-01T05:31:42;27.70;;;4.80;;
44139;SDS011;29803;51.048;4.686;2023-02-01T05:34:16;43.58;;;6.60;;
44139;SDS011;29803;51.048;4.686;2023-02-01T05:36:47;26.90;;;5.43;;
44139;SDS011;29803;51.048;4.686;2023-02-01T05:39:17;34.92;;;6.50;;
44139;SDS011;29803;51.048;4.686;2023-02-01T05:41:48;28.40;;;5.28;;
44139;SDS011;29803;51.048;4.686;2023-02-01T05:44:18;30.95;;;5.93;;
44139;SDS011;29803;51.048;4.686;2023-02-01T05:46:49;44.10;;;11.55;;
44139;SDS011;29803;51.048;4.686;2023-02-01T05:49:19;45.42;;;12.65;;
44139;SDS011;29803;51.048;4.686;2023-02-01T05:51:50;69.32;;;20.75;;
44139;SDS011;29803;51.048;4.686;2023-02-01T05:54:20;49.80;;;14.65;;
44139;SDS011;29803;51.048;4.686;2023-02-01T05:56:51;49.95;;;11.52;;
44139;SDS011;29803;51.048;4.686;2023-02-01T05:59:21;55.85;;;15.48;;
44139;SDS011;29803;51.048;4.686;2023-02-01T06:01:52;53.92;;;18.02;;
44139;SDS011;29803;51.048;4.686;2023-02-01T06:04:22;30.55;;;8.70;;
44139;SDS011;29803;51.048;4.686;2023-02-01T06:06:53;47.63;;;13.68;;
44139;SDS011;29803;51.048;4.686;2023-02-01T06:09:23;37.63;;;12.40;;
44139;SDS011;29803;51.048;4.686;2023-02-01T06:11:54;45.05;;;12.57;;
44139;SDS011;29803;51.048;4.686;2023-02-01T06:14:24;39.33;;;9.05;;
44139;SDS011;29803;51.048;4.686;2023-02-01T06:16:55;34.95;;;11.70;;
44139;SDS011;29803;51.048;4.686;2023-02-01T06:19:26;46.72;;;17.88;;
44139;SDS011;29803;51.048;4.686;2023-02-01T06:21:56;43.38;;;10.35;;
44139;SDS011;29803;51.048;4.686;2023-02-01T06:24:27;49.53;;;14.75;;
44139;SDS011;29803;51.048;4.686;2023-02-01T06:26:57;36.67;;;8.60;;
44139;SDS011;29803;51.048;4.686;2023-02-01T06:29:27;53.15;;;16.77;;
44139;SDS011;29803;51.048;4.686;2023-02-01T06:31:58;26.70;;;6.60;;
44139;SDS011;29803;51.048;4.686;2023-02-01T06:34:29;37.83;;;5.68;;
44139;SDS011;29803;51.048;4.686;2023-02-01T06:36:59;35.47;;;9.57;;
44139;SDS011;29803;51.048;4.686;2023-02-01T06:39:30;44.65;;;6.95;;
44139;SDS011;29803;51.048;4.686;2023-02-01T06:42:00;76.20;;;26.10;;
44139;SDS011;29803;51.048;4.686;2023-02-01T06:44:31;59.70;;;17.33;;
44139;SDS011;29803;51.048;4.686;2023-02-01T06:47:02;45.30;;;9.75;;
44139;SDS011;29803;51.048;4.686;2023-02-01T06:49:34;50.65;;;12.45;;
44139;SDS011;29803;51.048;4.686;2023-02-01T06:52:04;38.78;;;8.95;;
44139;SDS011;29803;51.048;4.686;2023-02-01T06:54:35;51.55;;;14.35;;
44139;SDS011;29803;51.048;4.686;2023-02-01T06:57:07;31.08;;;5.53;;
44139;SDS011;29803;51.048;4.686;2023-02-01T06:59:37;37.17;;;10.80;;
44139;SDS011;29803;51.048;4.686;2023-02-01T07:02:10;56.13;;;14.90;;
44139;SDS011;29803;51.048;4.686;2023-02-01T07:04:41;61.15;;;14.93;;
44139;SDS011;29803;51.048;4.686;2023-02-01T07:07:12;40.03;;;11.32;;
44139;SDS011;29803;51.048;4.686;2023-02-01T07:09:43;40.97;;;8.27;;
44139;SDS011;29803;51.048;4.686;2023-02-01T07:12:13;55.10;;;16.05;;
44139;SDS011;29803;51.048;4.686;2023-02-01T07:14:44;40.75;;;10.88;;
44139;SDS011;29803;51.048;4.686;2023-02-01T07:17:14;34.85;;;7.65;;
44139;SDS011;29803;51.048;4.686;2023-02-01T07:19:45;38.70;;;7.93;;
44139;SDS011;29803;51.048;4.686;2023-02-01T07:22:16;46.03;;;10.93;;
44139;SDS011;29803;51.048;4.686;2023-02-01T07:24:47;41.72;;;10.02;;
44139;SDS011;29803;51.048;4.686;2023-02-01T07:27:17;31.98;;;8.93;;
44139;SDS011;29803;51.048;4.686;2023-02-01T07:29:48;31.30;;;7.50;;
44139;SDS011;29803;51.048;4.686;2023-02-01T07:32:19;36.58;;;7.40;;
44139;SDS011;29803;51.048;4.686;2023-02-01T07:34:49;28.85;;;4.43;;
44139;SDS011;29803;51.048;4.686;2023-02-01T07:37:19;23.45;;;5.90;;
44139;SDS011;29803;51.048;4.686;2023-02-01T07:39:50;35.80;;;5.38;;
44139;SDS011;29803;51.048;4.686;2023-02-01T07:42:21;42.47;;;9.85;;
44139;SDS011;29803;51.048;4.686;2023-02-01T07:44:52;28.40;;;6.63;;
44139;SDS011;29803;51.048;4.686;2023-02-01T07:47:22;43.08;;;11.50;;
44139;SDS011;29803;51.048;4.686;2023-02-01T07:49:53;85.63;;;26.45;;
44139;SDS011;29803;51.048;4.686;2023-02-01T07:52:23;106.97;;;31.05;;
44139;SDS011;29803;51.048;4.686;2023-02-01T07:54:53;64.07;;;16.75;;
44139;SDS011;29803;51.048;4.686;2023-02-01T07:57:24;115.22;;;33.88;;
44139;SDS011;29803;51.048;4.686;2023-02-01T07:59:54;64.35;;;20.85;;
44139;SDS011;29803;51.048;4.686;2023-02-01T08:02:44;77.13;;;16.40;;
44139;SDS011;29803;51.048;4.686;2023-02-01T08:05:14;61.05;;;11.95;;
44139;SDS011;29803;51.048;4.686;2023-02-01T08:07:48;47.85;;;11.15;;
44139;SDS011;29803;51.048;4.686;2023-02-01T08:10:19;63.75;;;15.68;;
44139;SDS011;29803;51.048;4.686;2023-02-01T08:12:50;58.13;;;13.70;;
44139;SDS011;29803;51.048;4.686;2023-02-01T08:15:21;51.92;;;13.27;;
44139;SDS011;29803;51.048;4.686;2023-02-01T08:17:52;42.42;;;10.23;;
44139;SDS011;29803;51.048;4.686;2023-02-01T08:20:24;44.45;;;8.38;;
44139;SDS011;29803;51.048;4.686;2023-02-01T08:22:56;33.95;;;7.32;;
44139;SDS011;29803;51.048;4.686;2023-02-01T08:25:26;34.65;;;8.95;;
44139;SDS011;29803;51.048;4.686;2023-02-01T08:27:57;39.25;;;7.10;;
44139;SDS011;29803;51.048;4.686;2023-02-01T08:30:28;25.45;;;5.40;;
44139;SDS011;29803;51.048;4.686;2023-02-01T08:32:58;41.38;;;8.40;;
44139;SDS011;29803;51.048;4.686;2023-02-01T08:35:29;31.73;;;7.75;;
44139;SDS011;29803;51.048;4.686;2023-02-01T08:37:59;35.70;;;6.97;;
44139;SDS011;29803;51.048;4.686;2023-02-01T08:40:30;36.97;;;6.10;;
44139;SDS011;29803;51.048;4.686;2023-02-01T08:43:01;29.52;;;5.60;;
44139;SDS011;29803;51.048;4.686;2023-02-01T08:45:32;27.05;;;3.65;;
44139;SDS011;29803;51.048;4.686;2023-02-01T08:48:02;54.67;;;18.00;;
44139;SDS011;29803;51.048;4.686;2023-02-01T08:50:33;29.45;;;9.07;;
44139;SDS011;29803;51.048;4.686;2023-02-01T08:53:03;26.33;;;4.28;;
44139;SDS011;29803;51.048;4.686;2023-02-01T08:55:34;30.05;;;5.40;;
44139;SDS011;29803;51.048;4.686;2023-02-01T08:58:04;32.72;;;7.72;;
44139;SDS011;29803;51.048;4.686;2023-02-01T09:00:35;26.42;;;6.78;;
44139;SDS011;29803;51.048;4.686;2023-02-01T09:03:05;37.95;;;9.45;;
44139;SDS011;29803;51.048;4.686;2023-02-01T09:05:36;51.42;;;16.75;;
44139;SDS011;29803;51.048;4.686;2023-02-01T09:08:06;27.20;;;6.90;;
44139;SDS011;29803;51.048;4.686;2023-02-01T09:10:37;41.80;;;9.10;;
44139;SDS011;29803;51.048;4.686;2023-02-01T09:13:08;33.45;;;7.05;;
44139;SDS011;29803;51.048;4.686;2023-02-01T09:15:39;33.80;;;6.53;;
44139;SDS011;29803;51.048;4.686;2023-02-01T09:18:09;34.22;;;5.47;;
44139;SDS011;29803;51.048;4.686;2023-02-01T09:20:40;34.83;;;5.80;;
44139;SDS011;29803;51.048;4.686;2023-02-01T09:23:10;37.35;;;6.28;;
44139;SDS011;29803;51.048;4.686;2023-02-01T09:25:40;22.52;;;4.90;;
44139;SDS011;29803;51.048;4.686;2023-02-01T09:28:11;31.67;;;7.97;;
44139;SDS011;29803;51.048;4.686;2023-02-01T09:30:41;37.00;;;6.70;;
44139;SDS011;29803;51.048;4.686;2023-02-01T09:33:12;31.08;;;6.00;;
44139;SDS011;29803;51.048;4.686;2023-02-01T09:35:43;31.48;;;5.68;;
44139;SDS011;29803;51.048;4.686;2023-02-01T09:38:14;29.63;;;4.72;;
44139;SDS011;29803;51.048;4.686;2023-02-01T09:40:45;30.35;;;5.03;;
44139;SDS011;29803;51.048;4.686;2023-02-01T09:43:19;24.00;;;5.15;;
44139;SDS011;29803;51.048;4.686;2023-02-01T09:46:22;28.85;;;6.80;;
44139;SDS011;29803;51.048;4.686;2023-02-01T09:48:59;30.05;;;6.70;;
44139;SDS011;29803;51.048;4.686;2023-02-01T09:51:35;26.90;;;5.00;;
44139;SDS011;29803;51.048;4.686;2023-02-01T09:54:09;24.10;;;4.35;;
44139;SDS011;29803;51.048;4.686;2023-02-01T09:56:46;28.17;;;5.00;;
44139;SDS011;29803;51.048;4.686;2023-02-01T09:59:23;31.88;;;4.72;;
44139;SDS011;29803;51.048;4.686;2023-02-01T10:02:01;27.52;;;5.40;;
44139;SDS011;29803;51.048;4.686;2023-02-01T10:04:34;22.08;;;4.57;;
44139;SDS011;29803;51.048;4.686;2023-02-01T10:24:25;43.00;;;9.77;;
44139;SDS011;29803;51.048;4.686;2023-02-01T10:29:37;30.98;;;5.55;;
44139;SDS011;29803;51.048;4.686;2023-02-01T10:32:12;29.17;;;6.45;;
44139;SDS011;29803;51.048;4.686;2023-02-01T10:34:46;33.38;;;6.22;;
44139;SDS011;29803;51.048;4.686;2023-02-01T10:37:24;30.77;;;6.95;;
44139;SDS011;29803;51.048;4.686;2023-02-01T10:39:59;25.27;;;4.75;;
44139;SDS011;29803;51.048;4.686;2023-02-01T10:42:32;21.48;;;4.63;;
44139;SDS011;29803;51.048;4.686;2023-02-01T10:45:03;30.02;;;4.65;;
44139;SDS011;29803;51.048;4.686;2023-02-01T10:47:34;19.55;;;3.35;;
44139;SDS011;29803;51.048;4.686;2023-02-01T10:53:03;21.27;;;3.80;;
44139;SDS011;29803;51.048;4.686;2023-02-01T10:55:46;23.02;;;4.45;;
44139;SDS011;29803;51.048;4.686;2023-02-01T10:58:47;21.00;;;3.67;;
44139;SDS011;29803;51.048;4.686;2023-02-01T11:01:19;25.60;;;3.38;;
44139;SDS011;29803;51.048;4.686;2023-02-01T11:03:55;20.77;;;3.50;;
44139;SDS011;29803;51.048;4.686;2023-02-01T11:09:16;23.33;;;3.90;;
44139;SDS011;29803;51.048;4.686;2023-02-01T11:17:16;14.40;;;3.90;;
44139;SDS011;29803;51.048;4.686;2023-02-01T11:19:56;25.15;;;6.50;;
44139;SDS011;29803;51.048;4.686;2023-02-01T11:22:29;22.08;;;2.90;;
44139;SDS011;29803;51.048;4.686;2023-02-01T11:25:01;24.08;;;4.28;;
44139;SDS011;29803;51.048;4.686;2023-02-01T11:27:37;30.90;;;11.63;;
44139;SDS011;29803;51.048;4.686;2023-02-01T11:30:13;37.53;;;11.35;;
44139;SDS011;29803;51.048;4.686;2023-02-01T11:32:46;19.77;;;7.40;;
44139;SDS011;29803;51.048;4.686;2023-02-01T11:35:19;19.13;;;4.68;;
44139;SDS011;29803;51.048;4.686;2023-02-01T11:37:54;38.00;;;16.35;;
44139;SDS011;29803;51.048;4.686;2023-02-01T11:40:33;22.75;;;7.63;;
44139;SDS011;29803;51.048;4.686;2023-02-01T11:43:08;29.35;;;8.48;;
44139;SDS011;29803;51.048;4.686;2023-02-01T11:45:53;36.42;;;14.13;;
44139;SDS011;29803;51.048;4.686;2023-02-01T11:48:42;23.65;;;6.40;;
44139;SDS011;29803;51.048;4.686;2023-02-01T11:57:04;32.40;;;7.55;;
44139;SDS011;29803;51.048;4.686;2023-02-01T12:00:02;30.83;;;8.40;;
44139;SDS011;29803;51.048;4.686;2023-02-01T12:02:55;36.08;;;13.10;;
44139;SDS011;29803;51.048;4.686;2023-02-01T12:22:38;15.60;;;3.58;;
44139;SDS011;29803;51.048;4.686;2023-02-01T12:28:08;20.25;;;4.25;;
44139;SDS011;29803;51.048;4.686;2023-02-01T12:34:10;16.40;;;2.78;;
44139;SDS011;29803;51.048;4.686;2023-02-01T12:42:53;20.10;;;5.25;;
44139;SDS011;29803;51.048;4.686;2023-02-01T12:45:33;20.27;;;3.60;;
44139;SDS011;29803;51.048;4.686;2023-02-01T12:48:24;23.50;;;4.07;;
44139;SDS011;29803;51.048;4.686;2023-02-01T12:51:02;26.15;;;5.20;;
44139;SDS011;29803;51.048;4.686;2023-02-01T12:53:50;21.50;;;4.30;;
44139;SDS011;29803;51.048;4.686;2023-02-01T12:56:26;15.32;;;3.75;;
44139;SDS011;29803;51.048;4.686;2023-02-01T12:59:03;19.75;;;4.28;;
44139;SDS011;29803;51.048;4.686;2023-02-01T13:01:40;16.63;;;3.55;;
44139;SDS011;29803;51.048;4.686;2023-02-01T13:07:03;19.00;;;3.35;;
44139;SDS011;29803;51.048;4.686;2023-02-01T13:09:38;19.08;;;3.13;;
44139;SDS011;29803;51.048;4.686;2023-02-01T13:12:13;18.75;;;3.47;;
44139;SDS011;29803;51.048;4.686;2023-02-01T13:17:52;20.40;;;2.70;;
44139;SDS011;29803;51.048;4.686;2023-02-01T13:23:18;9.18;;;2.58;;
44139;SDS011;29803;51.048;4.686;2023-02-01T13:25:56;20.38;;;2.72;;
44139;SDS011;29803;51.048;4.686;2023-02-01T13:28:40;18.02;;;2.97;;
44139;SDS011;29803;51.048;4.686;2023-02-01T13:34:32;12.13;;;2.95;;
44139;SDS011;29803;51.048;4.686;2023-02-01T13:40:41;13.35;;;2.35;;
44139;SDS011;29803;51.048;4.686;2023-02-01T13:46:04;21.02;;;3.25;;
44139;SDS011;29803;51.048;4.686;2023-02-01T13:48:40;11.37;;;2.20;;
44139;SDS011;29803;51.048;4.686;2023-02-01T13:51:18;15.68;;;3.00;;
44139;SDS011;29803;51.048;4.686;2023-02-01T13:54:03;13.65;;;1.92;;
44139;SDS011;29803;51.048;4.686;2023-02-01T14:10:52;14.20;;;2.20;;
44139;SDS011;29803;51.048;4.686;2023-02-01T14:13:28;11.30;;;2.65;;
44139;SDS011;29803;51.048;4.686;2023-02-01T14:21:52;17.77;;;4.60;;
44139;SDS011;29803;51.048;4.686;2023-02-01T14:24:29;16.45;;;2.80;;
44139;SDS011;29803;51.048;4.686;2023-02-01T14:29:43;18.48;;;3.42;;
44139;SDS011;29803;51.048;4.686;2023-02-01T14:35:18;15.48;;;2.85;;
44139;SDS011;29803;51.048;4.686;2023-02-01T14:37:54;16.42;;;4.30;;
44139;SDS011;29803;51.048;4.686;2023-02-01T14:40:32;16.52;;;2.60;;
44139;SDS011;29803;51.048;4.686;2023-02-01T14:43:07;25.92;;;3.78;;
44139;SDS011;29803;51.048;4.686;2023-02-01T14:50:41;13.63;;;3.20;;
44139;SDS011;29803;51.048;4.686;2023-02-01T14:53:16;12.98;;;2.85;;
44139;SDS011;29803;51.048;4.686;2023-02-01T15:01:26;20.48;;;2.58;;
44139;SDS011;29803;51.048;4.686;2023-02-01T15:04:13;18.95;;;4.47;;
44139;SDS011;29803;51.048;4.686;2023-02-01T15:09:43;24.58;;;4.40;;
44139;SDS011;29803;51.048;4.686;2023-02-01T15:12:18;22.15;;;2.95;;
44139;SDS011;29803;51.048;4.686;2023-02-01T15:20:50;23.38;;;2.63;;
44139;SDS011;29803;51.048;4.686;2023-02-01T15:23:28;11.23;;;2.90;;
44139;SDS011;29803;51.048;4.686;2023-02-01T15:25:59;15.25;;;2.85;;
44139;SDS011;29803;51.048;4.686;2023-02-01T15:28:29;20.77;;;2.47;;
44139;SDS011;29803;51.048;4.686;2023-02-01T15:31:01;11.38;;;2.47;;
44139;SDS011;29803;51.048;4.686;2023-02-01T15:33:34;24.35;;;7.35;;
44139;SDS011;29803;51.048;4.686;2023-02-01T15:38:36;15.38;;;3.22;;
44139;SDS011;29803;51.048;4.686;2023-02-01T15:41:10;14.73;;;2.67;;
44139;SDS011;29803;51.048;4.686;2023-02-01T15:49:02;20.17;;;3.15;;
44139;SDS011;29803;51.048;4.686;2023-02-01T15:51:33;26.55;;;3.53;;
44139;SDS011;29803;51.048;4.686;2023-02-01T15:54:04;15.07;;;2.67;;
44139;SDS011;29803;51.048;4.686;2023-02-01T15:56:39;23.40;;;3.47;;
44139;SDS011;29803;51.048;4.686;2023-02-01T15:59:13;16.15;;;3.65;;
44139;SDS011;29803;51.048;4.686;2023-02-01T16:01:46;25.15;;;5.45;;
44139;SDS011;29803;51.048;4.686;2023-02-01T16:04:19;21.05;;;3.58;;
44139;SDS011;29803;51.048;4.686;2023-02-01T16:06:52;21.33;;;3.35;;
44139;SDS011;29803;51.048;4.686;2023-02-01T16:09:34;18.15;;;3.10;;
44139;SDS011;29803;51.048;4.686;2023-02-01T16:15:15;26.83;;;4.25;;
44139;SDS011;29803;51.048;4.686;2023-02-01T16:17:46;22.33;;;3.53;;
44139;SDS011;29803;51.048;4.686;2023-02-01T16:20:16;26.50;;;3.35;;
44139;SDS011;29803;51.048;4.686;2023-02-01T16:22:47;17.25;;;3.03;;
44139;SDS011;29803;51.048;4.686;2023-02-01T16:25:17;17.92;;;4.07;;
44139;SDS011;29803;51.048;4.686;2023-02-01T16:27:48;17.42;;;3.33;;
44139;SDS011;29803;51.048;4.686;2023-02-01T16:30:19;53.72;;;17.83;;
44139;SDS011;29803;51.048;4.686;2023-02-01T16:32:54;23.35;;;8.90;;
44139;SDS011;29803;51.048;4.686;2023-02-01T16:38:05;18.77;;;4.03;;
44139;SDS011;29803;51.048;4.686;2023-02-01T16:40:42;13.73;;;3.00;;
44139;SDS011;29803;51.048;4.686;2023-02-01T16:43:16;43.78;;;15.85;;
44139;SDS011;29803;51.048;4.686;2023-02-01T16:45:50;23.10;;;4.10;;
44139;SDS011;29803;51.048;4.686;2023-02-01T16:51:11;27.88;;;4.90;;
44139;SDS011;29803;51.048;4.686;2023-02-01T16:53:44;19.65;;;4.00;;
44139;SDS011;29803;51.048;4.686;2023-02-01T16:56:16;30.65;;;4.28;;
44139;SDS011;29803;51.048;4.686;2023-02-01T16:58:49;27.13;;;4.75;;
44139;SDS011;29803;51.048;4.686;2023-02-01T17:01:20;22.08;;;3.65;;
44139;SDS011;29803;51.048;4.686;2023-02-01T17:03:50;21.92;;;3.83;;
44139;SDS011;29803;51.048;4.686;2023-02-01T17:06:22;32.88;;;4.70;;
44139;SDS011;29803;51.048;4.686;2023-02-01T17:08:55;21.00;;;3.30;;
44139;SDS011;29803;51.048;4.686;2023-02-01T17:11:28;18.67;;;4.63;;
44139;SDS011;29803;51.048;4.686;2023-02-01T17:16:51;15.38;;;3.08;;
44139;SDS011;29803;51.048;4.686;2023-02-01T17:19:22;22.38;;;4.30;;
44139;SDS011;29803;51.048;4.686;2023-02-01T17:21:54;18.42;;;3.95;;
44139;SDS011;29803;51.048;4.686;2023-02-01T17:24:29;18.00;;;3.63;;
44139;SDS011;29803;51.048;4.686;2023-02-01T17:27:00;20.80;;;3.75;;
44139;SDS011;29803;51.048;4.686;2023-02-01T17:29:33;19.13;;;3.85;;
44139;SDS011;29803;51.048;4.686;2023-02-01T17:32:04;33.13;;;4.38;;
44139;SDS011;29803;51.048;4.686;2023-02-01T17:34:34;18.60;;;5.88;;
44139;SDS011;29803;51.048;4.686;2023-02-01T17:37:22;29.55;;;4.70;;
44139;SDS011;29803;51.048;4.686;2023-02-01T17:39:58;34.50;;;6.78;;
44139;SDS011;29803;51.048;4.686;2023-02-01T17:42:29;24.45;;;5.68;;
44139;SDS011;29803;51.048;4.686;2023-02-01T17:45:01;42.88;;;9.80;;
44139;SDS011;29803;51.048;4.686;2023-02-01T17:47:45;39.13;;;8.60;;
44139;SDS011;29803;51.048;4.686;2023-02-01T17:50:16;29.50;;;5.63;;
44139;SDS011;29803;51.048;4.686;2023-02-01T17:52:47;21.70;;;5.93;;
44139;SDS011;29803;51.048;4.686;2023-02-01T17:55:21;18.98;;;5.18;;
44139;SDS011;29803;51.048;4.686;2023-02-01T17:57:53;29.00;;;4.45;;
44139;SDS011;29803;51.048;4.686;2023-02-01T18:00:24;28.23;;;7.28;;
44139;SDS011;29803;51.048;4.686;2023-02-01T18:02:54;27.13;;;7.45;;
44139;SDS011;29803;51.048;4.686;2023-02-01T18:05:28;43.58;;;9.20;;
44139;SDS011;29803;51.048;4.686;2023-02-01T18:08:10;61.60;;;14.98;;
44139;SDS011;29803;51.048;4.686;2023-02-01T18:10:40;48.35;;;19.70;;
44139;SDS011;29803;51.048;4.686;2023-02-01T18:13:11;40.65;;;12.65;;
44139;SDS011;29803;51.048;4.686;2023-02-01T18:15:41;30.05;;;7.43;;